createdAt,value
2018-09-09T00:02:12.183Z,65.70
2018-09-09T00:04:40.973Z,66.00
2018-09-09T00:07:09.559Z,66.10
2018-09-09T00:09:43.309Z,66.20
2018-09-09T00:12:12.106Z,66.00
2018-09-09T00:14:40.920Z,66.10
2018-09-09T00:17:10.387Z,66.20
2018-09-09T00:19:39.203Z,66.00
2018-09-09T00:22:08.015Z,65.90
2018-09-09T00:24:36.769Z,65.50
2018-09-09T00:27:06.223Z,65.50
2018-09-09T00:29:35.178Z,65.40
2018-09-09T00:32:03.903Z,65.80
2018-09-09T00:34:32.762Z,65.80
2018-09-09T00:37:01.518Z,66.00
2018-09-09T00:39:30.162Z,65.70
2018-09-09T00:41:58.927Z,65.80
2018-09-09T00:44:27.459Z,65.90
2018-09-09T00:46:56.259Z,65.70
2018-09-09T00:49:30.357Z,65.40
2018-09-09T00:52:04.843Z,65.30
2018-09-09T00:54:33.448Z,65.30
2018-09-09T00:57:02.401Z,64.90
2018-09-09T00:59:31.000Z,65.40
2018-09-09T01:02:00.085Z,65.60
2018-09-09T01:04:28.831Z,65.90
2018-09-09T01:06:58.175Z,65.70
2018-09-09T01:09:32.900Z,65.30
2018-09-09T01:12:02.529Z,64.60
2018-09-09T01:14:31.300Z,64.30
2018-09-09T01:17:00.267Z,64.20
2018-09-09T01:19:28.877Z,64.10
2018-09-09T01:21:57.725Z,64.30
2018-09-09T01:24:26.325Z,64.50
2018-09-09T01:26:55.166Z,65.00
2018-09-09T01:29:24.058Z,65.50
2018-09-09T01:31:52.951Z,65.80
2018-09-09T01:34:22.340Z,66.20
2018-09-09T01:36:51.144Z,66.50
2018-09-09T01:39:20.120Z,66.70
2018-09-09T01:41:48.898Z,66.60
2018-09-09T01:44:17.559Z,66.60
2018-09-09T01:46:46.144Z,66.60
2018-09-09T01:49:15.234Z,66.40
2018-09-09T01:51:43.822Z,65.60
2018-09-09T01:54:12.487Z,65.80
2018-09-09T01:56:41.353Z,65.90
2018-09-09T01:59:09.907Z,66.30
2018-09-09T02:01:38.488Z,66.70
2018-09-09T02:04:08.048Z,66.20
2018-09-09T02:06:37.016Z,65.70
2018-09-09T02:09:06.368Z,65.60
2018-09-09T02:11:35.271Z,64.90
2018-09-09T02:14:04.026Z,64.90
2018-09-09T02:16:32.941Z,64.70
2018-09-09T02:19:01.596Z,64.40
2018-09-09T02:21:30.155Z,64.30
2018-09-09T02:23:58.699Z,64.60
2018-09-09T02:26:27.423Z,65.20
2018-09-09T02:28:56.398Z,65.70
2018-09-09T02:31:24.946Z,65.70
2018-09-09T02:33:53.627Z,66.10
2018-09-09T02:36:22.772Z,65.60
2018-09-09T02:38:52.661Z,64.60
2018-09-09T02:41:21.604Z,64.10
2018-09-09T02:43:50.860Z,64.00
2018-09-09T02:46:19.450Z,64.00
2018-09-09T02:48:48.258Z,64.30
2018-09-09T02:51:16.914Z,64.80
2018-09-09T02:53:45.623Z,65.40
2018-09-09T02:56:15.952Z,65.90
2018-09-09T02:58:45.966Z,64.90
2018-09-09T03:01:15.070Z,64.50
2018-09-09T03:03:43.846Z,64.10
2018-09-09T03:06:13.395Z,63.90
2018-09-09T03:08:42.957Z,64.40
2018-09-09T03:11:14.072Z,65.00
2018-09-09T03:13:45.348Z,64.50
2018-09-09T03:16:14.101Z,64.30
2018-09-09T03:18:43.231Z,65.10
2018-09-09T03:21:12.019Z,64.40
2018-09-09T03:23:44.735Z,65.80
2018-09-09T03:26:13.831Z,66.20
2018-09-09T03:28:42.549Z,66.20
2018-09-09T03:31:11.204Z,66.50
2018-09-09T03:33:39.973Z,66.50
2018-09-09T03:36:09.050Z,66.60
2018-09-09T03:38:38.322Z,66.60
2018-09-09T03:41:06.916Z,66.40
2018-09-09T03:43:50.112Z,65.50
2018-09-09T03:46:18.811Z,65.60
2018-09-09T03:48:48.203Z,65.90
2018-09-09T03:51:17.508Z,66.10
2018-09-09T03:53:46.993Z,65.80
2018-09-09T03:56:16.362Z,65.90
2018-09-09T03:58:45.158Z,66.40
2018-09-09T04:01:14.233Z,65.90
2018-09-09T04:03:43.024Z,65.70
2018-09-09T04:06:12.288Z,65.80
2018-09-09T04:08:42.032Z,65.60
2018-09-09T04:11:11.671Z,65.50
2018-09-09T04:13:42.378Z,65.70
2018-09-09T04:16:12.466Z,65.70
2018-09-09T04:18:42.467Z,65.70
2018-09-09T04:21:11.385Z,66.10
2018-09-09T04:23:40.484Z,66.10
2018-09-09T04:26:09.349Z,65.90
2018-09-09T04:28:38.057Z,65.70
2018-09-09T04:31:06.880Z,65.60
2018-09-09T04:33:35.438Z,65.50
2018-09-09T04:36:04.023Z,64.60
2018-09-09T04:38:32.575Z,64.80
2018-09-09T04:41:01.867Z,64.60
2018-09-09T04:43:30.510Z,64.70
2018-09-09T04:45:59.363Z,64.60
2018-09-09T04:48:27.983Z,64.80
2018-09-09T04:50:57.183Z,64.90
2018-09-09T04:53:26.247Z,64.90
2018-09-09T04:55:54.876Z,65.20
2018-09-09T04:58:23.959Z,64.90
2018-09-09T05:00:52.746Z,64.90
2018-09-09T05:03:21.292Z,64.50
2018-09-09T05:05:50.325Z,64.70
2018-09-09T05:08:19.135Z,64.90
2018-09-09T05:10:48.338Z,64.60
2018-09-09T05:13:17.066Z,64.50
2018-09-09T05:15:45.647Z,64.10
2018-09-09T05:18:14.232Z,64.30
2018-09-09T05:20:43.262Z,64.40
2018-09-09T05:23:11.791Z,65.20
2018-09-09T05:25:40.444Z,65.30
2018-09-09T05:28:09.096Z,65.20
2018-09-09T05:30:37.705Z,65.70
2018-09-09T05:33:06.390Z,65.50
2018-09-09T05:35:35.044Z,65.70
2018-09-09T05:38:03.727Z,65.80
2018-09-09T05:40:32.473Z,65.90
2018-09-09T05:43:01.219Z,66.00
2018-09-09T05:45:29.904Z,65.80
2018-09-09T05:47:58.630Z,65.70
2018-09-09T05:50:27.366Z,65.70
2018-09-09T05:52:56.052Z,65.50
2018-09-09T05:55:24.889Z,65.20
2018-09-09T05:57:53.637Z,65.20
2018-09-09T06:00:22.203Z,65.40
2018-09-09T06:02:50.773Z,65.70
2018-09-09T06:05:19.491Z,65.60
2018-09-09T06:07:48.264Z,65.50
2018-09-09T06:10:17.856Z,65.30
2018-09-09T06:12:46.471Z,65.30
2018-09-09T06:15:15.063Z,65.20
2018-09-09T06:17:43.852Z,65.70
2018-09-09T06:20:12.887Z,64.90
2018-09-09T06:22:41.677Z,65.00
2018-09-09T06:25:10.272Z,65.10
2018-09-09T06:27:38.824Z,65.40
2018-09-09T06:30:07.516Z,65.40
2018-09-09T06:32:36.312Z,65.20
2018-09-09T06:35:05.191Z,65.00
2018-09-09T06:37:34.364Z,65.00
2018-09-09T06:40:03.278Z,64.70
2018-09-09T06:42:32.349Z,64.90
2018-09-09T06:45:01.111Z,64.80
2018-09-09T06:47:29.737Z,64.40
2018-09-09T06:49:58.306Z,64.40
2018-09-09T06:52:26.905Z,64.50
2018-09-09T06:54:55.498Z,64.30
2018-09-09T06:57:24.160Z,64.20
2018-09-09T06:59:53.348Z,63.70
2018-09-09T07:02:22.135Z,63.50
2018-09-09T07:04:50.644Z,64.00
2018-09-09T07:07:19.600Z,64.60
2018-09-09T07:09:48.287Z,64.60
2018-09-09T07:12:18.075Z,64.90
2018-09-09T07:14:47.716Z,64.70
2018-09-09T07:17:16.911Z,65.00
2018-09-09T07:19:46.756Z,64.00
2018-09-09T07:22:15.745Z,63.80
2018-09-09T07:24:44.359Z,63.40
2018-09-09T07:27:13.243Z,63.20
2018-09-09T07:29:42.323Z,62.90
2018-09-09T07:32:11.008Z,62.80
2018-09-09T07:34:40.719Z,62.70
2018-09-09T07:37:09.608Z,62.40
2018-09-09T07:39:38.822Z,62.40
2018-09-09T07:42:08.005Z,62.10
2018-09-09T07:44:36.841Z,61.90
2018-09-09T07:47:05.552Z,61.70
2018-09-09T07:49:34.508Z,61.30
2018-09-09T07:52:03.098Z,61.30
2018-09-09T07:54:31.627Z,60.90
2018-09-09T07:57:00.176Z,60.70
2018-09-09T07:59:28.751Z,60.60
2018-09-09T08:01:57.799Z,60.20
2018-09-09T08:04:26.492Z,60.00
2018-09-09T08:06:55.405Z,59.60
2018-09-09T08:09:23.984Z,59.40
2018-09-09T08:11:52.576Z,59.20
2018-09-09T08:14:21.321Z,59.20
2018-09-09T08:16:49.930Z,58.70
2018-09-09T08:19:18.755Z,58.90
2018-09-09T08:21:47.559Z,59.10
2018-09-09T08:24:16.336Z,58.90
2018-09-09T08:26:45.486Z,58.80
2018-09-09T08:29:14.198Z,58.90
2018-09-09T08:31:42.821Z,59.60
2018-09-09T08:34:11.667Z,58.60
2018-09-09T08:36:40.795Z,58.40
2018-09-09T08:39:10.620Z,58.40
2018-09-09T08:41:39.428Z,58.50
2018-09-09T08:44:08.791Z,58.30
2018-09-09T08:46:37.344Z,58.40
2018-09-09T08:49:06.316Z,58.60
2018-09-09T08:51:35.931Z,58.20
2018-09-09T08:54:04.926Z,58.00
2018-09-09T08:56:33.514Z,57.80
2018-09-09T08:59:02.125Z,56.60
2018-09-09T09:01:31.172Z,56.40
2018-09-09T09:03:59.858Z,56.20
2018-09-09T09:06:28.489Z,56.00
2018-09-09T09:08:57.140Z,55.80
2018-09-09T09:11:25.912Z,56.00
2018-09-09T09:13:54.499Z,55.80
2018-09-09T09:16:23.098Z,55.80
2018-09-09T09:18:52.008Z,55.60
2018-09-09T09:21:20.715Z,55.70
2018-09-09T09:23:49.724Z,56.00
2018-09-09T09:26:18.730Z,56.50
2018-09-09T09:28:48.296Z,56.40
2018-09-09T09:31:16.955Z,56.50
2018-09-09T09:33:45.868Z,56.80
2018-09-09T09:36:15.167Z,56.50
2018-09-09T09:38:43.924Z,56.30
2018-09-09T09:41:12.643Z,56.50
2018-09-09T09:43:41.364Z,56.50
2018-09-09T09:46:10.221Z,56.30
2018-09-09T09:48:39.237Z,56.40
2018-09-09T09:51:08.140Z,56.20
2018-09-09T09:53:37.078Z,56.20
2018-09-09T09:56:05.723Z,55.80
2018-09-09T09:58:34.514Z,55.10
2018-09-09T10:01:03.087Z,55.50
2018-09-09T10:03:32.311Z,56.30
2018-09-09T10:06:01.341Z,56.40
2018-09-09T10:08:29.969Z,56.30
2018-09-09T10:10:58.551Z,56.70
2018-09-09T10:13:27.128Z,56.80
2018-09-09T10:15:55.899Z,56.80
2018-09-09T10:18:25.021Z,56.80
2018-09-09T10:20:54.261Z,56.70
2018-09-09T10:23:23.551Z,56.50
2018-09-09T10:25:52.275Z,56.20
2018-09-09T10:28:21.083Z,55.60
2018-09-09T10:30:50.167Z,55.60
2018-09-09T10:33:19.018Z,55.60
2018-09-09T10:35:47.780Z,55.20
2018-09-09T10:38:16.411Z,54.90
2018-09-09T10:40:45.255Z,54.70
2018-09-09T10:43:15.636Z,53.70
2018-09-09T10:45:44.487Z,54.10
2018-09-09T10:48:13.208Z,53.10
2018-09-09T10:50:41.818Z,52.30
2018-09-09T10:53:10.446Z,52.40
2018-09-09T10:55:39.715Z,51.50
2018-09-09T10:58:08.353Z,52.70
2018-09-09T11:00:37.701Z,53.40
2018-09-09T11:03:06.932Z,53.30
2018-09-09T11:05:35.751Z,52.60
2018-09-09T11:08:05.411Z,51.80
2018-09-09T11:10:34.544Z,52.30
2018-09-09T11:13:03.458Z,52.60
2018-09-09T11:15:32.057Z,53.00
2018-09-09T11:18:00.929Z,53.50
2018-09-09T11:20:29.616Z,53.70
2018-09-09T11:22:58.406Z,53.30
2018-09-09T11:25:26.975Z,53.50
2018-09-09T11:27:55.594Z,53.30
2018-09-09T11:30:24.770Z,53.10
2018-09-09T11:32:53.658Z,53.30
2018-09-09T11:35:22.286Z,53.00
2018-09-09T11:37:50.984Z,53.00
2018-09-09T11:40:19.733Z,53.00
2018-09-09T11:42:48.817Z,53.40
2018-09-09T11:45:17.674Z,52.20
2018-09-09T11:47:46.355Z,51.00
2018-09-09T11:50:15.678Z,52.00
2018-09-09T11:52:44.245Z,52.60
2018-09-09T11:55:13.129Z,52.70
2018-09-09T11:57:42.154Z,52.70
2018-09-09T12:00:10.752Z,52.30
2018-09-09T12:02:39.811Z,52.70
2018-09-09T12:05:08.699Z,52.50
2018-09-09T12:07:37.441Z,50.80
2018-09-09T12:10:06.992Z,50.50
2018-09-09T12:12:35.828Z,51.10
2018-09-09T12:15:05.574Z,52.00
2018-09-09T12:17:34.384Z,51.50
2018-09-09T12:20:03.722Z,51.20
2018-09-09T12:22:32.704Z,51.60
2018-09-09T12:25:01.765Z,51.50
2018-09-09T12:27:30.565Z,50.40
2018-09-09T12:29:59.395Z,50.30
2018-09-09T12:32:28.124Z,50.90
2018-09-09T12:34:58.048Z,50.80
2018-09-09T12:37:26.928Z,49.90
2018-09-09T12:39:56.392Z,49.80
2018-09-09T12:42:25.750Z,50.20
2018-09-09T12:44:59.851Z,49.60
2018-09-09T12:47:34.079Z,49.40
2018-09-09T12:50:02.987Z,48.70
2018-09-09T12:52:32.109Z,48.40
2018-09-09T12:55:01.079Z,48.20
2018-09-09T12:57:29.891Z,49.00
2018-09-09T12:59:58.634Z,48.70
2018-09-09T13:02:27.765Z,49.10
2018-09-09T13:04:56.956Z,48.20
2018-09-09T13:07:25.629Z,47.00
2018-09-09T13:09:54.366Z,47.20
2018-09-09T13:12:23.192Z,48.50
2018-09-09T13:14:52.361Z,47.20
2018-09-09T13:17:21.004Z,45.50
2018-09-09T13:19:49.643Z,46.90
2018-09-09T13:22:18.592Z,47.70
2018-09-09T13:24:47.338Z,48.00
2018-09-09T13:27:16.217Z,47.30
2018-09-09T13:29:45.518Z,45.90
2018-09-09T13:32:14.069Z,47.60
2018-09-09T13:34:43.576Z,48.20
2018-09-09T13:37:12.312Z,47.30
2018-09-09T13:39:41.663Z,47.10
2018-09-09T13:42:10.768Z,46.80
2018-09-09T13:44:39.804Z,48.30
2018-09-09T13:47:09.165Z,48.80
2018-09-09T13:49:38.526Z,48.20
2018-09-09T13:52:08.075Z,47.70
2018-09-09T13:54:37.026Z,47.80
2018-09-09T13:57:06.113Z,47.60
2018-09-09T13:59:34.844Z,48.20
2018-09-09T14:02:03.695Z,48.20
2018-09-09T14:04:33.422Z,48.20
2018-09-09T14:07:02.488Z,48.00
2018-09-09T14:09:31.552Z,47.40
2018-09-09T14:12:00.747Z,48.60
2018-09-09T14:14:29.530Z,49.00
2018-09-09T14:16:58.079Z,48.40
2018-09-09T14:19:27.313Z,49.00
2018-09-09T14:21:55.944Z,48.60
2018-09-09T14:24:25.844Z,48.40
2018-09-09T14:26:58.375Z,47.60
2018-09-09T14:29:27.321Z,48.20
2018-09-09T14:31:57.158Z,48.40
2018-09-09T14:34:26.139Z,48.20
2018-09-09T14:36:54.788Z,48.40
2018-09-09T14:39:23.415Z,48.60
2018-09-09T14:41:52.049Z,48.70
2018-09-09T14:44:21.194Z,48.20
2018-09-09T14:46:49.824Z,48.80
2018-09-09T14:49:18.509Z,46.80
2018-09-09T14:51:47.092Z,48.40
2018-09-09T14:54:16.561Z,48.00
2018-09-09T14:56:45.867Z,47.80
2018-09-09T14:59:14.584Z,47.60
2018-09-09T15:01:43.237Z,47.10
2018-09-09T15:04:12.240Z,47.60
2018-09-09T15:06:40.853Z,47.20
2018-09-09T15:09:11.120Z,47.10
2018-09-09T15:11:40.081Z,48.20
2018-09-09T15:14:08.709Z,46.90
2018-09-09T15:16:37.550Z,47.40
2018-09-09T15:19:06.481Z,45.30
2018-09-09T15:21:35.529Z,46.00
2018-09-09T15:24:04.344Z,46.90
2018-09-09T15:26:33.065Z,47.50
2018-09-09T15:29:02.095Z,47.50
2018-09-09T15:31:30.779Z,45.90
2018-09-09T15:34:00.180Z,46.80
2018-09-09T15:36:29.135Z,48.00
2018-09-09T15:38:58.300Z,46.90
2018-09-09T15:41:27.990Z,47.10
2018-09-09T15:44:11.067Z,47.70
2018-09-09T15:46:40.009Z,46.30
2018-09-09T15:49:10.066Z,47.70
2018-09-09T15:51:39.060Z,47.60
2018-09-09T15:54:07.930Z,47.40
2018-09-09T15:56:36.992Z,47.60
2018-09-09T15:59:06.040Z,47.90
2018-09-09T16:01:34.609Z,48.10
2018-09-09T16:04:03.263Z,47.80
2018-09-09T16:06:32.231Z,48.80
2018-09-09T16:09:01.433Z,48.40
2018-09-09T16:11:30.224Z,48.50
2018-09-09T16:13:58.825Z,48.20
2018-09-09T16:16:27.684Z,48.50
2018-09-09T16:18:56.513Z,48.40
2018-09-09T16:21:26.483Z,48.40
2018-09-09T16:23:55.184Z,49.20
2018-09-09T16:26:24.444Z,49.40
2018-09-09T16:28:53.108Z,47.70
2018-09-09T16:31:21.927Z,47.80
2018-09-09T16:33:50.570Z,48.20
2018-09-09T16:36:19.115Z,48.20
2018-09-09T16:38:47.775Z,48.50
2018-09-09T16:41:16.579Z,48.70
2018-09-09T16:43:45.248Z,49.00
2018-09-09T16:46:14.158Z,48.90
2018-09-09T16:48:43.136Z,49.20
2018-09-09T16:51:11.754Z,48.90
2018-09-09T16:53:40.427Z,49.10
2018-09-09T16:56:09.193Z,49.30
2018-09-09T16:58:37.711Z,49.70
2018-09-09T17:01:06.734Z,49.90
2018-09-09T17:03:36.459Z,49.60
2018-09-09T17:06:05.099Z,49.60
2018-09-09T17:08:33.620Z,49.60
2018-09-09T17:11:02.512Z,49.60
2018-09-09T17:13:31.504Z,49.80
2018-09-09T17:16:00.370Z,50.60
2018-09-09T17:18:29.138Z,50.80
2018-09-09T17:20:58.052Z,51.30
2018-09-09T17:23:27.039Z,51.50
2018-09-09T17:25:55.944Z,51.70
2018-09-09T17:28:24.841Z,52.10
2018-09-09T17:30:53.498Z,52.60
2018-09-09T17:33:22.853Z,52.90
2018-09-09T17:35:51.844Z,53.10
2018-09-09T17:38:20.852Z,53.60
2018-09-09T17:40:49.507Z,53.70
2018-09-09T17:43:18.224Z,54.00
2018-09-09T17:45:47.397Z,53.30
2018-09-09T17:48:16.002Z,53.60
2018-09-09T17:50:45.177Z,53.90
2018-09-09T17:53:13.732Z,53.40
2018-09-09T17:55:42.532Z,53.40
2018-09-09T17:58:11.263Z,53.70
2018-09-09T18:00:40.389Z,54.00
2018-09-09T18:03:10.249Z,54.50
2018-09-09T18:05:39.331Z,54.40
2018-09-09T18:08:09.563Z,54.30
2018-09-09T18:10:38.750Z,54.90
2018-09-09T18:13:07.940Z,55.50
2018-09-09T18:15:37.217Z,56.10
2018-09-09T18:18:06.433Z,56.60
2018-09-09T18:20:35.151Z,56.80
2018-09-09T18:23:03.756Z,56.70
2018-09-09T18:25:32.608Z,57.00
2018-09-09T18:28:01.642Z,57.00
2018-09-09T18:30:31.927Z,57.40
2018-09-09T18:33:00.868Z,57.50
2018-09-09T18:35:31.293Z,57.60
2018-09-09T18:38:00.806Z,57.80
2018-09-09T18:40:29.359Z,57.60
2018-09-09T18:42:58.279Z,57.50
2018-09-09T18:45:27.669Z,57.60
2018-09-09T18:47:56.971Z,57.30
2018-09-09T18:50:25.713Z,56.80
2018-09-09T18:52:55.060Z,57.10
2018-09-09T18:55:23.644Z,57.30
2018-09-09T18:57:52.602Z,57.50
2018-09-09T19:00:21.219Z,57.50
2018-09-09T19:02:49.891Z,57.60
2018-09-09T19:05:18.667Z,57.60
2018-09-09T19:07:47.636Z,57.60
2018-09-09T19:10:16.432Z,57.70
2018-09-09T19:12:45.227Z,57.60
2018-09-09T19:15:14.112Z,57.90
2018-09-09T19:17:42.699Z,58.40
2018-09-09T19:20:11.651Z,58.80
2018-09-09T19:22:40.832Z,59.00
2018-09-09T19:25:10.219Z,58.90
2018-09-09T19:27:39.395Z,58.70
2018-09-09T19:30:08.340Z,58.90
2018-09-09T19:32:37.893Z,58.60
2018-09-09T19:35:06.901Z,58.80
2018-09-09T19:37:35.926Z,59.10
2018-09-09T19:40:04.749Z,59.20
2018-09-09T19:42:35.450Z,59.00
2018-09-09T19:45:05.180Z,59.00
2018-09-09T19:47:34.047Z,58.90
2018-09-09T19:50:04.588Z,59.20
2018-09-09T19:52:33.486Z,59.10
2018-09-09T19:55:02.331Z,59.20
2018-09-09T19:57:31.055Z,59.40
2018-09-09T19:59:59.851Z,59.60
2018-09-09T20:02:28.625Z,59.70
2018-09-09T20:04:57.328Z,60.10
2018-09-09T20:07:26.217Z,60.10
2018-09-09T20:09:55.095Z,59.80
2018-09-09T20:12:24.398Z,59.90
2018-09-09T20:14:53.107Z,60.00
2018-09-09T20:17:21.760Z,61.50
2018-09-09T20:19:52.109Z,60.00
2018-09-09T20:22:20.641Z,60.10
2018-09-09T20:24:50.239Z,60.00
2018-09-09T20:27:18.871Z,60.10
2018-09-09T20:29:47.544Z,60.00
2018-09-09T20:32:16.222Z,60.40
2018-09-09T20:34:45.093Z,60.50
2018-09-09T20:37:13.759Z,60.30
2018-09-09T20:39:42.543Z,60.70
2018-09-09T20:42:11.354Z,60.70
2018-09-09T20:44:39.949Z,61.00
2018-09-09T20:47:09.354Z,60.70
2018-09-09T20:49:38.025Z,60.70
2018-09-09T20:52:07.187Z,60.80
2018-09-09T20:54:35.940Z,60.90
2018-09-09T20:57:04.856Z,61.30
2018-09-09T20:59:33.768Z,61.50
2018-09-09T21:02:02.496Z,61.50
2018-09-09T21:04:31.059Z,61.30
2018-09-09T21:06:59.927Z,61.50
2018-09-09T21:09:29.192Z,61.70
2018-09-09T21:11:58.134Z,61.70
2018-09-09T21:14:26.699Z,61.70
2018-09-09T21:16:55.346Z,61.60
2018-09-09T21:19:24.598Z,61.60
2018-09-09T21:21:53.184Z,61.80
2018-09-09T21:24:21.776Z,61.50
2018-09-09T21:26:50.629Z,62.00
2018-09-09T21:29:19.191Z,62.20
2018-09-09T21:31:47.773Z,62.20
2018-09-09T21:34:16.774Z,62.20
2018-09-09T21:36:45.451Z,62.20
2018-09-09T21:39:14.148Z,62.10
2018-09-09T21:41:42.823Z,62.00
2018-09-09T21:44:11.509Z,62.10
2018-09-09T21:46:40.061Z,61.90
2018-09-09T21:49:08.885Z,62.10
2018-09-09T21:51:37.888Z,62.60
2018-09-09T21:54:06.869Z,62.60
2018-09-09T21:56:35.478Z,62.40
2018-09-09T21:59:04.276Z,62.60
2018-09-09T22:01:38.309Z,62.60
2018-09-09T22:04:07.200Z,62.60
2018-09-09T22:06:36.105Z,62.70
2018-09-09T22:09:06.960Z,62.80
2018-09-09T22:11:35.483Z,62.90
2018-09-09T22:14:04.578Z,62.90
2018-09-09T22:16:33.476Z,62.90
2018-09-09T22:19:02.299Z,63.00
2018-09-09T22:21:30.844Z,62.90
2018-09-09T22:23:59.428Z,63.20
2018-09-09T22:26:28.064Z,63.30
2018-09-09T22:28:56.681Z,62.90
2018-09-09T22:31:25.446Z,63.00
2018-09-09T22:33:54.008Z,63.00
2018-09-09T22:36:23.021Z,63.00
2018-09-09T22:38:53.172Z,63.00
2018-09-09T22:41:21.967Z,63.20
2018-09-09T22:43:50.627Z,63.30
2018-09-09T22:46:19.420Z,63.10
2018-09-09T22:48:48.001Z,63.40
2018-09-09T22:51:16.792Z,63.40
2018-09-09T22:53:45.412Z,63.30
2018-09-09T22:56:13.998Z,63.30
2018-09-09T22:58:42.747Z,63.50
2018-09-09T23:01:11.534Z,63.50
2018-09-09T23:03:40.136Z,63.40
2018-09-09T23:06:09.009Z,63.20
2018-09-09T23:08:37.629Z,63.40
2018-09-09T23:11:06.280Z,63.70
2018-09-09T23:13:35.193Z,63.60
2018-09-09T23:16:03.917Z,63.50
2018-09-09T23:18:32.645Z,63.50
2018-09-09T23:21:01.541Z,63.50
2018-09-09T23:23:30.081Z,63.60
2018-09-09T23:25:58.692Z,63.80
2018-09-09T23:28:27.348Z,63.70
2018-09-09T23:30:56.073Z,63.60
2018-09-09T23:33:24.639Z,63.80
2018-09-09T23:35:53.480Z,63.50
2018-09-09T23:38:22.187Z,63.50
2018-09-09T23:40:50.820Z,63.70
2018-09-09T23:43:19.495Z,63.70
2018-09-09T23:45:48.087Z,64.00
2018-09-09T23:48:16.604Z,63.80
2018-09-09T23:50:45.256Z,63.70
2018-09-09T23:53:13.853Z,63.70
2018-09-09T23:55:42.503Z,63.60
2018-09-09T23:58:11.114Z,63.60
